createdAt,value
2018-12-08T00:00:47.661Z,972.08
2018-12-08T00:01:47.613Z,972.03
2018-12-08T00:02:47.611Z,972.12
2018-12-08T00:03:47.551Z,972.10
2018-12-08T00:04:48.584Z,972.19
2018-12-08T00:05:47.458Z,972.16
2018-12-08T00:06:47.397Z,972.16
2018-12-08T00:07:47.369Z,972.15
2018-12-08T00:08:47.380Z,972.21
2018-12-08T00:09:47.302Z,972.19
2018-12-08T00:10:47.252Z,972.26
2018-12-08T00:11:47.201Z,972.19
2018-12-08T00:12:47.157Z,972.18
2018-12-08T00:13:47.143Z,972.31
2018-12-08T00:14:47.081Z,972.26
2018-12-08T00:15:47.021Z,972.38
2018-12-08T00:16:47.026Z,972.36
2018-12-08T00:17:46.964Z,972.32
2018-12-08T00:18:46.904Z,972.28
2018-12-08T00:19:46.887Z,972.36
2018-12-08T00:20:46.821Z,972.37
2018-12-08T00:21:46.799Z,972.37
2018-12-08T00:22:46.730Z,972.36
2018-12-08T00:23:46.698Z,972.43
2018-12-08T00:24:46.645Z,972.39
2018-12-08T00:25:46.618Z,972.47
2018-12-08T00:26:46.548Z,972.44
2018-12-08T00:27:46.550Z,972.41
2018-12-08T00:28:46.525Z,972.38
2018-12-08T00:29:46.462Z,972.42
2018-12-08T00:30:46.397Z,972.36
2018-12-08T00:31:46.367Z,972.45
2018-12-08T00:32:46.322Z,972.42
2018-12-08T00:33:46.277Z,972.55
2018-12-08T00:34:46.223Z,972.56
2018-12-08T00:35:46.236Z,972.53
2018-12-08T00:36:46.166Z,972.53
2018-12-08T00:37:46.109Z,972.55
2018-12-08T00:38:46.066Z,972.56
2018-12-08T00:39:46.058Z,972.59
2018-12-08T00:40:45.972Z,972.57
2018-12-08T00:41:45.923Z,972.63
2018-12-08T00:42:45.872Z,972.72
2018-12-08T00:43:45.835Z,972.69
2018-12-08T00:44:45.819Z,972.74
2018-12-08T00:45:45.750Z,972.79
2018-12-08T00:46:45.751Z,972.86
2018-12-08T00:47:45.663Z,972.85
2018-12-08T00:48:45.660Z,972.81
2018-12-08T00:49:45.593Z,972.82
2018-12-08T00:50:45.560Z,972.80
2018-12-08T00:51:45.495Z,972.78
2018-12-08T00:52:45.644Z,972.80
2018-12-08T00:53:45.432Z,972.78
2018-12-08T00:54:45.389Z,972.85
2018-12-08T00:55:45.368Z,972.81
2018-12-08T00:56:45.287Z,972.85
2018-12-08T00:57:45.258Z,972.83
2018-12-08T00:58:45.212Z,972.78
2018-12-08T00:59:45.196Z,972.83
2018-12-08T01:00:45.172Z,972.88
2018-12-08T01:01:45.075Z,972.89
2018-12-08T01:02:45.033Z,972.81
2018-12-08T01:03:44.992Z,972.82
2018-12-08T01:04:44.951Z,972.80
2018-12-08T01:05:44.917Z,972.80
2018-12-08T01:06:44.862Z,972.78
2018-12-08T01:07:44.825Z,972.77
2018-12-08T01:08:44.797Z,972.71
2018-12-08T01:09:44.736Z,972.80
2018-12-08T01:10:44.691Z,972.76
2018-12-08T01:11:45.528Z,972.74
2018-12-08T01:12:44.612Z,972.75
2018-12-08T01:13:44.552Z,972.70
2018-12-08T01:14:44.506Z,972.73
2018-12-08T01:15:44.500Z,972.77
2018-12-08T01:16:44.504Z,972.75
2018-12-08T01:17:44.396Z,972.81
2018-12-08T01:18:44.345Z,972.84
2018-12-08T01:19:44.389Z,972.79
2018-12-08T01:20:44.288Z,972.77
2018-12-08T01:21:44.237Z,972.79
2018-12-08T01:22:44.188Z,972.81
2018-12-08T01:23:44.143Z,972.87
2018-12-08T01:24:44.301Z,972.86
2018-12-08T01:25:44.057Z,972.85
2018-12-08T01:26:44.047Z,972.87
2018-12-08T01:27:43.977Z,972.84
2018-12-08T01:28:43.931Z,972.94
2018-12-08T01:29:43.884Z,972.90
2018-12-08T01:30:43.857Z,972.89
2018-12-08T01:31:43.803Z,972.88
2018-12-08T01:32:43.762Z,972.83
2018-12-08T01:33:43.726Z,972.83
2018-12-08T01:34:43.712Z,972.84
2018-12-08T01:35:43.632Z,972.77
2018-12-08T01:36:43.606Z,972.76
2018-12-08T01:37:43.562Z,972.73
2018-12-08T01:38:43.521Z,972.76
2018-12-08T01:39:43.463Z,972.75
2018-12-08T01:40:43.461Z,972.83
2018-12-08T01:41:43.378Z,972.79
2018-12-08T01:42:43.365Z,972.79
2018-12-08T01:43:43.293Z,972.79
2018-12-08T01:44:43.287Z,972.79
2018-12-08T01:45:43.215Z,972.83
2018-12-08T01:46:43.173Z,972.83
2018-12-08T01:47:43.141Z,972.83
2018-12-08T01:48:43.107Z,972.88
2018-12-08T01:49:43.039Z,972.83
2018-12-08T01:50:42.994Z,972.87
2018-12-08T01:51:42.964Z,972.89
2018-12-08T01:52:42.916Z,972.87
2018-12-08T01:53:42.871Z,972.86
2018-12-08T01:54:42.832Z,972.92
2018-12-08T01:55:42.791Z,972.95
2018-12-08T01:56:42.757Z,972.98
2018-12-08T01:57:42.687Z,973.00
2018-12-08T01:58:42.680Z,972.93
2018-12-08T01:59:42.617Z,972.91
2018-12-08T02:00:42.572Z,972.97
2018-12-08T02:01:42.536Z,972.98
2018-12-08T02:02:42.479Z,972.98
2018-12-08T02:03:42.468Z,972.98
2018-12-08T02:04:42.403Z,973.04
2018-12-08T02:05:42.374Z,973.00
2018-12-08T02:06:42.319Z,973.01
2018-12-08T02:07:42.292Z,973.02
2018-12-08T02:08:42.226Z,973.03
2018-12-08T02:09:42.185Z,972.99
2018-12-08T02:10:42.156Z,972.99
2018-12-08T02:11:42.105Z,972.94
2018-12-08T02:12:42.077Z,972.94
2018-12-08T02:13:42.029Z,972.98
2018-12-08T02:14:41.974Z,973.00
2018-12-08T02:15:41.938Z,972.99
2018-12-08T02:16:41.898Z,972.97
2018-12-08T02:17:41.856Z,972.96
2018-12-08T02:18:41.793Z,972.96
2018-12-08T02:19:41.765Z,972.94
2018-12-08T02:20:41.719Z,972.93
2018-12-08T02:21:41.720Z,973.00
2018-12-08T02:22:41.636Z,972.99
2018-12-08T02:23:41.589Z,972.99
2018-12-08T02:24:41.554Z,972.98
2018-12-08T02:25:41.505Z,973.04
2018-12-08T02:26:41.488Z,973.01
2018-12-08T02:27:41.436Z,973.03
2018-12-08T02:28:41.387Z,973.12
2018-12-08T02:29:41.331Z,973.15
2018-12-08T02:30:41.296Z,973.16
2018-12-08T02:31:41.252Z,973.22
2018-12-08T02:32:41.210Z,973.21
2018-12-08T02:33:41.160Z,973.24
2018-12-08T02:34:41.173Z,973.26
2018-12-08T02:35:41.098Z,973.31
2018-12-08T02:36:41.062Z,973.34
2018-12-08T02:37:40.990Z,973.32
2018-12-08T02:38:42.222Z,973.32
2018-12-08T02:39:40.968Z,973.33
2018-12-08T02:40:40.869Z,973.30
2018-12-08T02:41:40.848Z,973.36
2018-12-08T02:42:40.808Z,973.33
2018-12-08T02:43:40.770Z,973.31
2018-12-08T02:44:40.729Z,973.32
2018-12-08T02:45:40.696Z,973.29
2018-12-08T02:46:40.601Z,973.29
2018-12-08T02:47:40.579Z,973.32
2018-12-08T02:48:40.540Z,973.34
2018-12-08T02:49:40.483Z,973.36
2018-12-08T02:50:40.541Z,973.34
2018-12-08T02:51:40.421Z,973.40
2018-12-08T02:52:40.358Z,973.37
2018-12-08T02:53:40.305Z,973.36
2018-12-08T02:54:40.280Z,973.34
2018-12-08T02:55:40.253Z,973.38
2018-12-08T02:56:40.184Z,973.38
2018-12-08T02:57:40.172Z,973.37
2018-12-08T02:58:40.107Z,973.42
2018-12-08T02:59:40.139Z,973.40
2018-12-08T03:00:40.044Z,973.46
2018-12-08T03:01:39.971Z,973.49
2018-12-08T03:02:39.918Z,973.50
2018-12-08T03:03:39.875Z,973.54
2018-12-08T03:04:39.871Z,973.64
2018-12-08T03:05:39.821Z,973.60
2018-12-08T03:06:39.762Z,973.66
2018-12-08T03:07:39.737Z,973.66
2018-12-08T03:08:39.683Z,973.72
2018-12-08T03:09:39.650Z,973.71
2018-12-08T03:10:39.605Z,973.73
2018-12-08T03:11:39.581Z,973.78
2018-12-08T03:12:39.541Z,973.73
2018-12-08T03:13:39.457Z,973.71
2018-12-08T03:14:39.454Z,973.78
2018-12-08T03:15:39.376Z,973.76
2018-12-08T03:16:39.354Z,973.84
2018-12-08T03:17:39.311Z,973.91
2018-12-08T03:18:39.355Z,973.80
2018-12-08T03:19:39.284Z,973.80
2018-12-08T03:20:39.297Z,973.78
2018-12-08T03:21:39.116Z,973.85
2018-12-08T03:22:39.187Z,973.94
2018-12-08T03:23:39.044Z,973.83
2018-12-08T03:24:39.041Z,973.87
2018-12-08T03:25:38.958Z,973.86
2018-12-08T03:26:38.902Z,973.77
2018-12-08T03:27:38.870Z,973.82
2018-12-08T03:28:38.828Z,973.88
2018-12-08T03:29:38.776Z,973.92
2018-12-08T03:30:38.755Z,973.96
2018-12-08T03:31:38.703Z,973.95
2018-12-08T03:32:38.677Z,973.97
2018-12-08T03:33:38.644Z,974.02
2018-12-08T03:34:38.584Z,973.97
2018-12-08T03:35:38.554Z,974.04
2018-12-08T03:36:38.498Z,974.11
2018-12-08T03:37:38.481Z,974.08
2018-12-08T03:38:38.410Z,974.14
2018-12-08T03:39:38.377Z,974.15
2018-12-08T03:40:38.323Z,974.14
2018-12-08T03:41:38.267Z,974.07
2018-12-08T03:42:38.226Z,974.10
2018-12-08T03:43:38.215Z,974.05
2018-12-08T03:44:38.158Z,974.13
2018-12-08T03:45:38.144Z,974.06
2018-12-08T03:46:38.058Z,974.09
2018-12-08T03:47:38.042Z,974.05
2018-12-08T03:48:38.014Z,974.07
2018-12-08T03:49:37.963Z,974.03
2018-12-08T03:50:37.915Z,974.03
2018-12-08T03:51:37.868Z,974.07
2018-12-08T03:52:37.811Z,974.02
2018-12-08T03:53:37.792Z,974.06
2018-12-08T03:54:37.758Z,974.07
2018-12-08T03:55:37.709Z,974.05
2018-12-08T03:56:37.650Z,974.01
2018-12-08T03:57:37.594Z,974.02
2018-12-08T03:58:37.549Z,974.04
2018-12-08T03:59:37.505Z,974.06
2018-12-08T04:00:37.474Z,974.06
2018-12-08T04:01:37.421Z,974.10
2018-12-08T04:02:37.438Z,973.99
2018-12-08T04:03:37.355Z,974.03
2018-12-08T04:04:37.327Z,974.04
2018-12-08T04:05:37.283Z,974.03
2018-12-08T04:06:37.221Z,973.97
2018-12-08T04:07:37.165Z,973.90
2018-12-08T04:08:37.167Z,973.93
2018-12-08T04:09:37.106Z,973.93
2018-12-08T04:10:37.064Z,973.98
2018-12-08T04:11:37.022Z,973.97
2018-12-08T04:12:36.953Z,974.06
2018-12-08T04:13:36.912Z,974.03
2018-12-08T04:14:36.935Z,974.06
2018-12-08T04:15:36.860Z,974.04
2018-12-08T04:16:36.816Z,973.97
2018-12-08T04:17:36.863Z,973.94
2018-12-08T04:18:36.715Z,973.89
2018-12-08T04:19:36.683Z,973.91
2018-12-08T04:20:36.637Z,973.79
2018-12-08T04:21:36.629Z,973.77
2018-12-08T04:22:36.570Z,973.80
2018-12-08T04:23:36.512Z,973.86
2018-12-08T04:24:36.445Z,973.87
2018-12-08T04:25:36.412Z,973.96
2018-12-08T04:26:36.368Z,973.85
2018-12-08T04:27:36.344Z,973.94
2018-12-08T04:28:36.296Z,973.90
2018-12-08T04:29:36.232Z,973.93
2018-12-08T04:30:36.179Z,973.89
2018-12-08T04:31:36.154Z,973.93
2018-12-08T04:32:36.113Z,973.97
2018-12-08T04:33:36.076Z,974.01
2018-12-08T04:34:36.029Z,973.98
2018-12-08T04:35:36.002Z,974.00
2018-12-08T04:36:35.930Z,974.05
2018-12-08T04:37:35.918Z,974.10
2018-12-08T04:38:35.880Z,974.10
2018-12-08T04:39:35.810Z,974.16
2018-12-08T04:40:35.749Z,974.16
2018-12-08T04:41:35.735Z,974.20
2018-12-08T04:42:35.688Z,974.19
2018-12-08T04:43:35.625Z,974.25
2018-12-08T04:44:35.609Z,974.27
2018-12-08T04:45:35.572Z,974.37
2018-12-08T04:46:35.499Z,974.31
2018-12-08T04:47:35.474Z,974.34
2018-12-08T04:48:35.467Z,974.37
2018-12-08T04:49:35.404Z,974.33
2018-12-08T04:50:35.349Z,974.36
2018-12-08T04:51:35.288Z,974.34
2018-12-08T04:52:35.234Z,974.26
2018-12-08T04:53:35.209Z,974.29
2018-12-08T04:54:35.167Z,974.25
2018-12-08T04:55:35.129Z,974.21
2018-12-08T04:56:35.073Z,974.30
2018-12-08T04:57:35.035Z,974.22
2018-12-08T04:58:35.003Z,974.28
2018-12-08T04:59:34.943Z,974.26
2018-12-08T05:00:34.964Z,974.22
2018-12-08T05:01:35.036Z,974.25
2018-12-08T05:02:34.841Z,974.28
2018-12-08T05:03:34.785Z,974.35
2018-12-08T05:04:34.767Z,974.34
2018-12-08T05:05:34.711Z,974.38
2018-12-08T05:06:34.651Z,974.39
2018-12-08T05:07:34.613Z,974.29
2018-12-08T05:08:34.577Z,974.29
2018-12-08T05:09:34.569Z,974.24
2018-12-08T05:10:34.480Z,974.24
2018-12-08T05:11:34.446Z,974.28
2018-12-08T05:12:34.411Z,974.25
2018-12-08T05:13:34.361Z,974.28
2018-12-08T05:14:34.328Z,974.32
2018-12-08T05:15:34.265Z,974.35
2018-12-08T05:16:34.224Z,974.35
2018-12-08T05:17:34.164Z,974.33
2018-12-08T05:18:34.172Z,974.35
2018-12-08T05:19:34.089Z,974.38
2018-12-08T05:20:34.058Z,974.35
2018-12-08T05:21:34.032Z,974.25
2018-12-08T05:22:33.974Z,974.30
2018-12-08T05:23:33.935Z,974.29
2018-12-08T05:24:33.919Z,974.16
2018-12-08T05:25:33.826Z,974.17
2018-12-08T05:26:33.806Z,974.23
2018-12-08T05:27:33.755Z,974.27
2018-12-08T05:28:33.709Z,974.30
2018-12-08T05:29:33.682Z,974.28
2018-12-08T05:30:33.635Z,974.29
2018-12-08T05:31:33.608Z,974.30
2018-12-08T05:32:33.547Z,974.31
2018-12-08T05:33:33.490Z,974.29
2018-12-08T05:34:33.452Z,974.27
2018-12-08T05:35:33.413Z,974.27
2018-12-08T05:36:33.381Z,974.29
2018-12-08T05:37:33.334Z,974.30
2018-12-08T05:38:33.289Z,974.27
2018-12-08T05:39:33.352Z,974.30
2018-12-08T05:40:33.206Z,974.29
2018-12-08T05:41:33.168Z,974.33
2018-12-08T05:42:33.153Z,974.30
2018-12-08T05:43:33.094Z,974.29
2018-12-08T05:44:33.025Z,974.32
2018-12-08T05:45:32.997Z,974.33
2018-12-08T05:46:32.939Z,974.23
2018-12-08T05:47:32.966Z,974.27
2018-12-08T05:48:32.854Z,974.26
2018-12-08T05:49:32.841Z,974.23
2018-12-08T05:50:32.769Z,974.21
2018-12-08T05:51:32.743Z,974.16
2018-12-08T05:52:34.569Z,974.17
2018-12-08T05:53:32.674Z,974.16
2018-12-08T05:54:32.608Z,974.15
2018-12-08T05:55:32.551Z,974.16
2018-12-08T05:56:32.558Z,974.12
2018-12-08T05:57:32.482Z,974.17
2018-12-08T05:58:32.439Z,974.18
2018-12-08T05:59:32.412Z,974.20
2018-12-08T06:00:32.361Z,974.17
2018-12-08T06:01:32.302Z,974.24
2018-12-08T06:02:32.286Z,974.19
2018-12-08T06:03:32.222Z,974.22
2018-12-08T06:04:32.185Z,974.24
2018-12-08T06:05:32.160Z,974.23
2018-12-08T06:06:32.087Z,974.24
2018-12-08T06:07:32.085Z,974.24
2018-12-08T06:08:32.014Z,974.23
2018-12-08T06:09:31.961Z,974.23
2018-12-08T06:10:31.929Z,974.22
2018-12-08T06:11:31.875Z,974.30
2018-12-08T06:12:31.843Z,974.30
2018-12-08T06:13:31.807Z,974.27
2018-12-08T06:14:31.745Z,974.26
2018-12-08T06:15:31.703Z,974.27
2018-12-08T06:16:31.658Z,974.21
2018-12-08T06:17:31.610Z,974.21
2018-12-08T06:18:31.564Z,974.20
2018-12-08T06:19:31.619Z,974.23
2018-12-08T06:20:31.483Z,974.23
2018-12-08T06:21:31.479Z,974.25
2018-12-08T06:22:31.414Z,974.25
2018-12-08T06:23:31.359Z,974.35
2018-12-08T06:24:31.314Z,974.32
2018-12-08T06:25:31.270Z,974.29
2018-12-08T06:26:31.238Z,974.28
2018-12-08T06:27:31.219Z,974.29
2018-12-08T06:28:31.141Z,974.31
2018-12-08T06:29:31.116Z,974.25
2018-12-08T06:30:31.054Z,974.32
2018-12-08T06:31:31.081Z,974.32
2018-12-08T06:32:30.978Z,974.38
2018-12-08T06:33:30.932Z,974.41
2018-12-08T06:34:30.914Z,974.42
2018-12-08T06:35:30.905Z,974.36
2018-12-08T06:36:30.800Z,974.40
2018-12-08T06:37:30.761Z,974.37
2018-12-08T06:38:30.717Z,974.40
2018-12-08T06:39:30.674Z,974.35
2018-12-08T06:40:30.633Z,974.37
2018-12-08T06:41:30.598Z,974.38
2018-12-08T06:42:30.547Z,974.26
2018-12-08T06:43:30.499Z,974.24
2018-12-08T06:44:30.458Z,974.17
2018-12-08T06:45:30.426Z,974.12
2018-12-08T06:46:30.363Z,974.09
2018-12-08T06:47:30.333Z,974.12
2018-12-08T06:48:30.303Z,974.11
2018-12-08T06:49:30.251Z,974.05
2018-12-08T06:50:30.201Z,974.08
2018-12-08T06:51:30.170Z,974.13
2018-12-08T06:52:30.118Z,974.16
2018-12-08T06:53:30.077Z,974.16
2018-12-08T06:54:30.036Z,974.16
2018-12-08T06:55:29.990Z,974.09
2018-12-08T06:56:29.947Z,974.13
2018-12-08T06:57:29.925Z,974.09
2018-12-08T06:58:29.853Z,974.11
2018-12-08T06:59:29.831Z,974.10
2018-12-08T07:00:29.765Z,974.15
2018-12-08T07:01:29.734Z,974.14
2018-12-08T07:02:29.702Z,974.15
2018-12-08T07:03:29.673Z,974.18
2018-12-08T07:04:29.605Z,974.14
2018-12-08T07:05:29.586Z,974.13
2018-12-08T07:06:29.520Z,974.14
2018-12-08T07:07:29.485Z,974.13
2018-12-08T07:08:29.430Z,974.12
2018-12-08T07:09:29.396Z,974.13
2018-12-08T07:10:29.362Z,974.09
2018-12-08T07:11:29.323Z,974.17
2018-12-08T07:12:29.262Z,974.17
2018-12-08T07:13:29.210Z,974.17
2018-12-08T07:14:29.172Z,974.21
2018-12-08T07:15:29.229Z,974.12
2018-12-08T07:16:29.093Z,974.19
2018-12-08T07:17:29.044Z,974.21
2018-12-08T07:18:28.998Z,974.15
2018-12-08T07:19:28.958Z,974.18
2018-12-08T07:20:28.934Z,974.22
2018-12-08T07:21:28.870Z,974.18
2018-12-08T07:22:28.836Z,974.19
2018-12-08T07:23:28.789Z,974.23
2018-12-08T07:24:28.738Z,974.18
2018-12-08T07:25:28.730Z,974.27
2018-12-08T07:26:28.659Z,974.14
2018-12-08T07:27:28.615Z,974.20
2018-12-08T07:28:28.562Z,974.18
2018-12-08T07:29:28.518Z,974.18
2018-12-08T07:30:28.513Z,974.14
2018-12-08T07:31:28.468Z,974.13
2018-12-08T07:32:28.398Z,974.11
2018-12-08T07:33:28.389Z,974.17
2018-12-08T07:34:28.347Z,974.09
2018-12-08T07:35:28.279Z,974.02
2018-12-08T07:36:28.246Z,974.02
2018-12-08T07:37:28.195Z,974.01
2018-12-08T07:38:28.200Z,973.98
2018-12-08T07:39:28.121Z,973.91
2018-12-08T07:40:28.077Z,973.95
2018-12-08T07:41:28.019Z,973.91
2018-12-08T07:42:28.007Z,973.86
2018-12-08T07:43:27.941Z,973.83
2018-12-08T07:44:27.904Z,973.88
2018-12-08T07:45:27.892Z,973.87
2018-12-08T07:46:27.823Z,973.81
2018-12-08T07:47:27.770Z,973.76
2018-12-08T07:48:27.724Z,973.80
2018-12-08T07:49:27.682Z,973.89
2018-12-08T07:50:27.638Z,973.80
2018-12-08T07:51:27.620Z,973.73
2018-12-08T07:52:27.572Z,973.79
2018-12-08T07:53:27.541Z,973.75
2018-12-08T07:54:27.483Z,973.76
2018-12-08T07:55:27.441Z,973.78
2018-12-08T07:56:27.398Z,973.76
2018-12-08T07:57:27.493Z,973.76
2018-12-08T07:58:27.300Z,973.77
2018-12-08T07:59:27.253Z,973.89
2018-12-08T08:00:27.218Z,973.82
2018-12-08T08:01:27.187Z,973.82
2018-12-08T08:02:27.154Z,973.83
2018-12-08T08:03:27.115Z,973.88
2018-12-08T08:04:27.050Z,973.81
2018-12-08T08:05:27.005Z,973.90
2018-12-08T08:06:26.993Z,973.85
2018-12-08T08:07:26.919Z,973.80
2018-12-08T08:08:26.916Z,973.84
2018-12-08T08:09:26.864Z,973.79
2018-12-08T08:10:26.785Z,973.89
2018-12-08T08:11:26.768Z,973.82
2018-12-08T08:12:26.696Z,973.81
2018-12-08T08:13:26.665Z,973.79
2018-12-08T08:14:26.615Z,973.73
2018-12-08T08:15:26.571Z,973.83
2018-12-08T08:16:26.558Z,973.75
2018-12-08T08:17:26.495Z,973.75
2018-12-08T08:18:26.455Z,973.77
2018-12-08T08:19:26.458Z,973.72
2018-12-08T08:20:26.401Z,973.80
2018-12-08T08:21:26.333Z,973.77
2018-12-08T08:22:26.289Z,973.77
2018-12-08T08:23:26.265Z,973.78
2018-12-08T08:24:26.226Z,973.66
2018-12-08T08:25:26.176Z,973.78
2018-12-08T08:26:26.215Z,973.80
2018-12-08T08:27:26.087Z,973.82
2018-12-08T08:28:26.045Z,973.77
2018-12-08T08:29:25.990Z,973.76
2018-12-08T08:30:25.975Z,973.73
2018-12-08T08:31:25.910Z,973.78
2018-12-08T08:32:25.870Z,973.77
2018-12-08T08:33:25.846Z,973.79
2018-12-08T08:34:25.784Z,973.81
2018-12-08T08:35:25.739Z,973.78
2018-12-08T08:36:25.724Z,973.74
2018-12-08T08:37:25.678Z,973.71
2018-12-08T08:38:25.627Z,973.69
2018-12-08T08:39:25.595Z,973.74
2018-12-08T08:40:25.546Z,973.75
2018-12-08T08:41:25.490Z,973.72
2018-12-08T08:42:25.446Z,973.72
2018-12-08T08:43:25.417Z,973.77
2018-12-08T08:44:25.383Z,973.67
2018-12-08T08:45:25.330Z,973.70
2018-12-08T08:46:25.299Z,973.69
2018-12-08T08:47:25.246Z,973.71
2018-12-08T08:48:25.223Z,973.66
2018-12-08T08:49:25.300Z,973.66
2018-12-08T08:50:25.136Z,973.77
2018-12-08T08:51:25.095Z,973.75
2018-12-08T08:52:25.049Z,973.61
2018-12-08T08:53:25.004Z,973.67
2018-12-08T08:54:24.986Z,973.71
2018-12-08T08:55:26.292Z,973.55
2018-12-08T08:56:25.029Z,973.65
2018-12-08T08:57:24.851Z,973.73
2018-12-08T08:58:24.788Z,973.70
2018-12-08T08:59:24.758Z,973.66
2018-12-08T09:00:24.737Z,973.71
2018-12-08T09:01:24.673Z,973.61
2018-12-08T09:02:24.629Z,973.80
2018-12-08T09:03:24.581Z,973.64
2018-12-08T09:04:24.570Z,973.67
2018-12-08T09:05:24.494Z,973.70
2018-12-08T09:06:24.495Z,973.64
2018-12-08T09:07:24.453Z,973.59
2018-12-08T09:08:24.384Z,973.57
2018-12-08T09:09:24.340Z,973.60
2018-12-08T09:10:24.316Z,973.58
2018-12-08T09:11:24.253Z,973.56
2018-12-08T09:12:24.211Z,973.56
2018-12-08T09:13:24.199Z,973.47
2018-12-08T09:14:24.133Z,973.47
2018-12-08T09:15:24.124Z,973.47
2018-12-08T09:16:24.068Z,973.47
2018-12-08T09:17:24.058Z,973.48
2018-12-08T09:18:23.966Z,973.40
2018-12-08T09:19:23.932Z,973.45
2018-12-08T09:20:23.885Z,973.44
2018-12-08T09:21:23.870Z,973.48
2018-12-08T09:22:23.807Z,973.57
2018-12-08T09:23:23.769Z,973.52
2018-12-08T09:24:23.717Z,973.48
2018-12-08T09:25:23.685Z,973.55
2018-12-08T09:26:23.634Z,973.50
2018-12-08T09:27:23.598Z,973.61
2018-12-08T09:28:23.570Z,973.52
2018-12-08T09:29:23.527Z,973.53
2018-12-08T09:30:23.505Z,973.51
2018-12-08T09:31:23.450Z,973.44
2018-12-08T09:32:23.408Z,973.47
2018-12-08T09:33:23.362Z,973.44
2018-12-08T09:34:23.315Z,973.45
2018-12-08T09:35:23.315Z,973.34
2018-12-08T09:36:23.237Z,973.40
2018-12-08T09:37:23.179Z,973.35
2018-12-08T09:38:23.146Z,973.29
2018-12-08T09:39:23.148Z,973.29
2018-12-08T09:40:23.074Z,973.39
2018-12-08T09:41:23.049Z,973.26
2018-12-08T09:42:22.999Z,973.28
2018-12-08T09:43:23.018Z,973.25
2018-12-08T09:44:22.900Z,973.26
2018-12-08T09:45:22.878Z,973.28
2018-12-08T09:46:22.822Z,973.20
2018-12-08T09:47:22.784Z,973.31
2018-12-08T09:48:22.754Z,973.25
2018-12-08T09:49:22.709Z,973.26
2018-12-08T09:50:22.662Z,973.24
2018-12-08T09:51:22.628Z,973.37
2018-12-08T09:52:22.582Z,973.33
2018-12-08T09:53:22.547Z,973.32
2018-12-08T09:54:22.521Z,973.22
2018-12-08T09:55:22.474Z,973.32
2018-12-08T09:56:22.412Z,973.19
2018-12-08T09:57:22.379Z,973.10
2018-12-08T09:58:22.326Z,973.21
2018-12-08T09:59:22.350Z,973.22
2018-12-08T10:00:22.247Z,973.02
2018-12-08T10:01:22.207Z,973.11
2018-12-08T10:02:22.184Z,973.09
2018-12-08T10:03:22.136Z,973.10
2018-12-08T10:04:22.101Z,973.01
2018-12-08T10:05:22.048Z,973.09
2018-12-08T10:06:22.037Z,973.11
2018-12-08T10:07:21.975Z,973.00
2018-12-08T10:08:21.934Z,972.95
2018-12-08T10:09:21.877Z,972.96
2018-12-08T10:10:21.856Z,972.89
2018-12-08T10:11:21.798Z,972.93
2018-12-08T10:12:21.764Z,972.87
2018-12-08T10:13:21.753Z,972.86
2018-12-08T10:14:21.694Z,972.91
2018-12-08T10:15:21.648Z,972.82
2018-12-08T10:16:21.625Z,972.85
2018-12-08T10:17:21.566Z,972.82
2018-12-08T10:18:21.508Z,972.76
2018-12-08T10:19:21.513Z,972.89
2018-12-08T10:20:21.438Z,972.67
2018-12-08T10:21:21.409Z,972.89
2018-12-08T10:22:21.378Z,972.68
2018-12-08T10:23:21.336Z,972.84
2018-12-08T10:24:21.269Z,972.72
2018-12-08T10:25:21.244Z,972.76
2018-12-08T10:26:21.212Z,972.67
2018-12-08T10:27:21.153Z,972.68
2018-12-08T10:28:21.131Z,972.72
2018-12-08T10:29:21.121Z,972.63
2018-12-08T10:30:21.045Z,972.68
2018-12-08T10:31:21.001Z,972.69
2018-12-08T10:32:20.987Z,972.68
2018-12-08T10:33:20.938Z,972.68
2018-12-08T10:34:20.906Z,972.73
2018-12-08T10:35:20.859Z,972.69
2018-12-08T10:36:20.816Z,972.64
2018-12-08T10:37:20.773Z,972.58
2018-12-08T10:38:20.721Z,972.55
2018-12-08T10:39:20.682Z,972.64
2018-12-08T10:40:20.652Z,972.69
2018-12-08T10:41:20.616Z,972.66
2018-12-08T10:42:20.588Z,972.59
2018-12-08T10:43:20.548Z,972.61
2018-12-08T10:44:20.493Z,972.56
2018-12-08T10:45:20.494Z,972.66
2018-12-08T10:46:20.430Z,972.79
2018-12-08T10:47:20.411Z,972.77
2018-12-08T10:48:20.359Z,972.67
2018-12-08T10:49:20.295Z,972.53
2018-12-08T10:50:20.254Z,972.55
2018-12-08T10:51:20.236Z,972.74
2018-12-08T10:52:20.168Z,972.40
2018-12-08T10:53:20.131Z,972.56
2018-12-08T10:54:20.112Z,972.66
2018-12-08T10:55:20.041Z,972.54
2018-12-08T10:56:20.015Z,972.54
2018-12-08T10:57:19.978Z,972.40
2018-12-08T10:58:19.924Z,972.49
2018-12-08T10:59:19.895Z,972.47
2018-12-08T11:00:19.852Z,972.52
2018-12-08T11:01:19.807Z,972.41
2018-12-08T11:02:19.765Z,972.47
2018-12-08T11:03:19.725Z,972.35
2018-12-08T11:04:19.681Z,972.33
2018-12-08T11:05:19.652Z,972.38
2018-12-08T11:06:19.615Z,972.42
2018-12-08T11:07:19.557Z,972.36
2018-12-08T11:08:19.512Z,972.47
2018-12-08T11:09:19.499Z,972.37
2018-12-08T11:10:19.479Z,972.21
2018-12-08T11:11:19.418Z,972.26
2018-12-08T11:12:19.382Z,972.25
2018-12-08T11:13:19.324Z,972.16
2018-12-08T11:14:19.328Z,972.25
2018-12-08T11:15:19.252Z,972.17
2018-12-08T11:16:19.205Z,972.26
2018-12-08T11:17:19.168Z,972.31
2018-12-08T11:18:19.143Z,972.32
2018-12-08T11:19:19.124Z,972.37
2018-12-08T11:20:19.060Z,972.29
2018-12-08T11:21:19.020Z,972.20
2018-12-08T11:22:18.985Z,972.29
2018-12-08T11:23:18.977Z,972.24
2018-12-08T11:24:18.886Z,972.31
2018-12-08T11:25:18.871Z,972.34
2018-12-08T11:26:18.837Z,972.38
2018-12-08T11:27:18.767Z,972.32
2018-12-08T11:28:18.734Z,972.34
2018-12-08T11:29:18.767Z,972.19
2018-12-08T11:30:18.671Z,972.25
2018-12-08T11:31:18.633Z,972.17
2018-12-08T11:32:18.587Z,972.21
2018-12-08T11:33:18.538Z,972.24
2018-12-08T11:34:18.527Z,972.15
2018-12-08T11:35:18.474Z,972.19
2018-12-08T11:36:18.443Z,972.18
2018-12-08T11:37:18.387Z,972.12
2018-12-08T11:38:18.416Z,972.04
2018-12-08T11:39:18.306Z,971.99
2018-12-08T11:40:18.285Z,972.04
2018-12-08T11:41:18.246Z,972.16
2018-12-08T11:42:18.230Z,972.11
2018-12-08T11:43:18.154Z,972.10
2018-12-08T11:44:18.123Z,972.11
2018-12-08T11:45:18.079Z,972.09
2018-12-08T11:46:18.030Z,972.07
2018-12-08T11:47:18.013Z,972.07
2018-12-08T11:48:17.945Z,972.05
2018-12-08T11:49:17.955Z,972.17
2018-12-08T11:50:17.929Z,972.09
2018-12-08T11:51:17.884Z,971.94
2018-12-08T11:52:17.810Z,972.21
2018-12-08T11:53:17.772Z,972.01
2018-12-08T11:54:17.724Z,972.02
2018-12-08T11:55:17.685Z,972.11
2018-12-08T11:56:17.640Z,972.12
2018-12-08T11:57:17.611Z,972.02
2018-12-08T11:58:17.595Z,972.05
2018-12-08T11:59:17.529Z,972.06
2018-12-08T12:00:17.477Z,972.09
2018-12-08T12:01:18.203Z,972.06
2018-12-08T12:02:17.404Z,972.05
2018-12-08T12:03:17.372Z,972.01
2018-12-08T12:04:17.324Z,972.14
2018-12-08T12:05:17.291Z,972.13
2018-12-08T12:06:17.300Z,972.05
2018-12-08T12:07:17.223Z,972.08
2018-12-08T12:08:17.205Z,972.06
2018-12-08T12:09:17.136Z,972.12
2018-12-08T12:10:17.090Z,972.11
2018-12-08T12:11:17.060Z,972.07
2018-12-08T12:12:17.030Z,972.13
2018-12-08T12:13:16.986Z,972.09
2018-12-08T12:14:16.946Z,971.93
2018-12-08T12:15:16.893Z,971.94
2018-12-08T12:16:16.853Z,971.91
2018-12-08T12:17:16.809Z,971.94
2018-12-08T12:18:16.807Z,971.76
2018-12-08T12:19:16.778Z,971.81
2018-12-08T12:20:16.755Z,971.80
2018-12-08T12:21:16.672Z,971.87
2018-12-08T12:22:16.616Z,971.80
2018-12-08T12:23:16.586Z,971.82
2018-12-08T12:24:16.548Z,971.83
2018-12-08T12:25:16.534Z,971.87
2018-12-08T12:26:16.471Z,971.82
2018-12-08T12:27:16.492Z,971.86
2018-12-08T12:28:16.395Z,971.80